Time;durP1;ratioP1;P1;durP2;ratioP2;P2;SDS_P1;SDS_P2;PMS_P1;PMS_P2;Temp;Humidity;BMP_temperature;BMP_pressure;BME280_temperature;BME280_humidity;BME280_pressure;Samples;Min_cycle;Max_cycle;Signal;HPM_P1;HPM_P2
2023/12/31 00:00:56;;;;;;;18.38;9.70;;;20.70;42.30;;;;;;5006485;28;20031;-59
2023/12/31 00:03:21;;;;;;;16.80;9.13;;;20.70;42.30;;;;;;5004026;28;20114;-59
2023/12/31 00:05:47;;;;;;;15.70;8.98;;;20.70;42.30;;;;;;5002669;28;20026;-60
2023/12/31 00:08:14;;;;;;;17.73;9.43;;;20.70;42.30;;;;;;4992568;28;20054;-60
2023/12/31 00:10:40;;;;;;;16.50;9.32;;;20.70;42.30;;;;;;5005887;28;20060;-60
2023/12/31 00:13:06;;;;;;;17.80;9.57;;;20.70;42.30;;;;;;5005233;28;20030;-60
2023/12/31 00:15:32;;;;;;;18.08;8.75;;;20.70;42.20;;;;;;5008344;28;20038;-60
2023/12/31 00:17:58;;;;;;;16.95;9.52;;;20.70;42.20;;;;;;5001655;28;20109;-57
2023/12/31 00:20:24;;;;;;;16.05;8.25;;;20.70;42.20;;;;;;5004870;28;20112;-60
2023/12/31 00:22:49;;;;;;;15.07;7.88;;;20.70;42.20;;;;;;5006481;28;20437;-59
2023/12/31 00:25:16;;;;;;;14.05;8.38;;;20.70;42.20;;;;;;5006999;28;20030;-60
2023/12/31 00:27:42;;;;;;;17.45;8.27;;;20.70;42.20;;;;;;5005236;28;20037;-62
2023/12/31 00:30:08;;;;;;;13.80;7.60;;;20.70;42.20;;;;;;5002308;28;20046;-59
2023/12/31 00:32:34;;;;;;;12.40;7.00;;;20.70;42.20;;;;;;5003056;28;20026;-59
2023/12/31 00:35:00;;;;;;;11.90;6.20;;;20.70;42.20;;;;;;5005177;28;20092;-60
2023/12/31 00:37:26;;;;;;;10.00;5.53;;;20.70;42.20;;;;;;5007378;28;20030;-60
2023/12/31 00:39:52;;;;;;;10.63;5.00;;;20.60;42.20;;;;;;5008240;28;20091;-58
2023/12/31 00:42:18;;;;;;;6.90;4.32;;;20.60;42.20;;;;;;5004304;28;20034;-59
2023/12/31 00:44:43;;;;;;;8.52;3.95;;;20.60;42.20;;;;;;5005080;28;20040;-57
2023/12/31 00:47:09;;;;;;;7.70;3.75;;;20.60;42.20;;;;;;5005612;28;20460;-60
2023/12/31 00:49:35;;;;;;;7.10;3.35;;;20.60;42.20;;;;;;4998900;28;20053;-60
2023/12/31 00:52:01;;;;;;;7.28;3.53;;;20.60;42.20;;;;;;5001941;28;20373;-59
2023/12/31 00:54:27;;;;;;;7.03;3.90;;;20.60;42.20;;;;;;4999340;28;20085;-60
2023/12/31 00:56:53;;;;;;;8.98;4.43;;;20.60;42.20;;;;;;5005096;28;20460;-60
2023/12/31 00:59:18;;;;;;;8.48;4.57;;;20.60;42.20;;;;;;5004322;28;20026;-60
2023/12/31 01:01:44;;;;;;;10.60;5.68;;;20.60;42.20;;;;;;5004825;28;20112;-60
2023/12/31 01:04:10;;;;;;;10.13;6.18;;;20.60;42.20;;;;;;5005052;28;20026;-62
2023/12/31 01:06:36;;;;;;;14.43;8.43;;;20.60;42.20;;;;;;4997859;28;20026;-61
2023/12/31 01:09:02;;;;;;;17.83;9.50;;;20.50;42.10;;;;;;5000228;28;20376;-59
2023/12/31 01:11:28;;;;;;;17.45;9.00;;;20.50;42.10;;;;;;5000386;28;20046;-60
2023/12/31 01:13:54;;;;;;;18.02;9.60;;;20.50;42.10;;;;;;5002546;28;20191;-60
2023/12/31 01:16:20;;;;;;;22.10;9.82;;;20.50;42.10;;;;;;5005124;28;20027;-59
2023/12/31 01:18:46;;;;;;;20.20;9.73;;;20.50;42.10;;;;;;4993842;28;20057;-60
2023/12/31 01:21:13;;;;;;;18.05;9.73;;;20.50;42.20;;;;;;5005623;28;20030;-60
2023/12/31 01:23:38;;;;;;;19.23;10.70;;;20.50;42.20;;;;;;5007470;28;20030;-60
2023/12/31 01:26:04;;;;;;;18.42;10.10;;;20.50;42.10;;;;;;4997976;28;20109;-59
2023/12/31 01:28:30;;;;;;;17.27;9.00;;;20.50;42.20;;;;;;4998718;28;20039;-60
2023/12/31 01:30:57;;;;;;;16.45;8.45;;;20.40;42.10;;;;;;5006855;28;20479;-59
2023/12/31 01:33:24;;;;;;;13.25;7.63;;;20.40;42.10;;;;;;5004208;28;20034;-57
2023/12/31 01:35:50;;;;;;;9.65;6.65;;;20.40;42.10;;;;;;5003429;28;20037;-59
2023/12/31 01:38:15;;;;;;;9.90;5.30;;;20.40;42.10;;;;;;5002803;28;20061;-59
2023/12/31 01:40:51;;;;;;;8.52;5.22;;;20.40;42.10;;;;;;5003333;28;20030;-59
2023/12/31 01:43:19;;;;;;;10.05;4.97;;;20.40;42.10;;;;;;4981956;28;20046;-58
2023/12/31 01:45:45;;;;;;;6.97;3.83;;;20.40;42.10;;;;;;4991851;28;20053;-61
2023/12/31 01:48:11;;;;;;;8.63;3.70;;;20.40;42.10;;;;;;5005690;28;20026;-60
2023/12/31 01:50:37;;;;;;;5.60;3.47;;;20.40;42.20;;;;;;5003355;28;20479;-59
2023/12/31 01:53:04;;;;;;;5.60;3.05;;;20.40;42.20;;;;;;5009076;28;20029;-60
2023/12/31 01:55:30;;;;;;;6.63;3.20;;;20.30;42.10;;;;;;5005005;28;20027;-60
2023/12/31 01:57:56;;;;;;;5.57;2.80;;;20.30;42.10;;;;;;4999758;28;20041;-59
2023/12/31 02:00:22;;;;;;;3.83;2.35;;;20.40;42.20;;;;;;5002206;28;20374;-59
2023/12/31 02:02:50;;;;;;;4.13;2.55;;;20.30;42.20;;;;;;4998243;28;20366;-60
2023/12/31 02:05:16;;;;;;;5.70;2.45;;;20.30;42.10;;;;;;5000383;28;20468;-60
2023/12/31 02:07:42;;;;;;;6.80;2.60;;;20.30;42.10;;;;;;4997541;28;20026;-60
2023/12/31 02:10:09;;;;;;;3.67;2.20;;;20.30;42.10;;;;;;4999595;28;20043;-60
2023/12/31 02:12:35;;;;;;;4.30;2.45;;;20.30;42.10;;;;;;5003495;28;20076;-60
2023/12/31 02:15:01;;;;;;;4.55;2.40;;;20.30;42.10;;;;;;5004892;28;20112;-60
2023/12/31 02:17:27;;;;;;;4.90;2.17;;;20.30;42.20;;;;;;4992894;28;20048;-59
2023/12/31 02:19:53;;;;;;;4.65;1.85;;;20.30;42.10;;;;;;5000261;28;20037;-58
2023/12/31 02:22:18;;;;;;;3.63;2.00;;;20.30;42.20;;;;;;4999881;28;20129;-58
2023/12/31 02:24:48;;;;;;;3.97;2.10;;;20.30;42.20;;;;;;5004475;28;20365;-59
2023/12/31 02:27:15;;;;;;;3.58;2.00;;;20.30;42.10;;;;;;5000106;28;20034;-60
2023/12/31 02:29:41;;;;;;;3.45;1.92;;;20.30;42.20;;;;;;5002787;28;20046;-60
2023/12/31 02:32:07;;;;;;;2.92;1.80;;;20.30;42.10;;;;;;5005294;28;20037;-60
2023/12/31 02:34:33;;;;;;;3.35;1.67;;;20.20;42.10;;;;;;5005974;28;20034;-67
2023/12/31 02:36:59;;;;;;;4.30;1.70;;;20.20;42.10;;;;;;5002591;28;20108;-60
2023/12/31 02:39:25;;;;;;;2.50;1.60;;;20.20;42.10;;;;;;5007643;28;20110;-59
2023/12/31 02:41:51;;;;;;;2.25;1.40;;;20.30;42.20;;;;;;5002942;28;20046;-60
2023/12/31 02:44:20;;;;;;;2.95;1.50;;;20.20;42.20;;;;;;5003745;28;20069;-60
2023/12/31 02:46:46;;;;;;;3.25;1.65;;;20.20;42.20;;;;;;5000380;28;20084;-59
2023/12/31 02:49:12;;;;;;;1.80;1.30;;;20.20;42.10;;;;;;5008018;28;20054;-60
2023/12/31 02:51:38;;;;;;;3.45;1.45;;;20.20;42.20;;;;;;5000041;28;20036;-60
2023/12/31 02:54:04;;;;;;;2.88;1.42;;;20.20;42.10;;;;;;5010782;28;20022;-60
2023/12/31 02:56:29;;;;;;;2.47;1.45;;;20.20;42.10;;;;;;5002682;28;20428;-60
2023/12/31 02:58:55;;;;;;;2.28;1.20;;;20.20;42.20;;;;;;5004803;28;20076;-60
2023/12/31 03:01:21;;;;;;;2.78;1.20;;;20.20;42.10;;;;;;4985682;28;20038;-58
2023/12/31 03:03:47;;;;;;;2.83;1.40;;;20.20;42.10;;;;;;5001983;28;20053;-59
2023/12/31 03:06:15;;;;;;;1.85;1.20;;;20.20;42.20;;;;;;5004795;28;20096;-59
2023/12/31 03:08:41;;;;;;;2.55;1.30;;;20.20;42.20;;;;;;4998942;28;20081;-60
2023/12/31 03:11:08;;;;;;;2.47;1.38;;;20.10;42.10;;;;;;5002684;28;20089;-61
2023/12/31 03:13:34;;;;;;;2.15;1.08;;;20.10;42.10;;;;;;5002809;28;20440;-58
2023/12/31 03:16:06;;;;;;;3.25;1.38;;;20.10;42.00;;;;;;5005199;28;20037;-60
2023/12/31 03:18:33;;;;;;;2.25;1.20;;;20.10;42.10;;;;;;4990068;28;20117;-59
2023/12/31 03:20:58;;;;;;;2.15;1.13;;;20.10;42.00;;;;;;4988555;28;20034;-60
2023/12/31 03:23:24;;;;;;;2.75;1.27;;;20.10;42.00;;;;;;4998888;28;20045;-60
2023/12/31 03:25:50;;;;;;;1.48;0.90;;;20.10;42.00;;;;;;5005133;28;20046;-59
2023/12/31 03:28:16;;;;;;;2.88;1.30;;;20.10;42.00;;;;;;5003206;28;20057;-60
2023/12/31 03:30:42;;;;;;;4.13;1.00;;;20.10;42.00;;;;;;5001120;28;20099;-59
2023/12/31 03:33:07;;;;;;;1.92;1.10;;;20.10;42.00;;;;;;5010563;28;20038;-59
2023/12/31 03:35:33;;;;;;;1.45;0.90;;;20.10;42.00;;;;;;4986584;28;20044;-60
2023/12/31 03:37:59;;;;;;;2.30;1.00;;;20.10;41.90;;;;;;5004835;28;20022;-60
2023/12/31 03:40:26;;;;;;;1.30;0.80;;;20.10;42.00;;;;;;4998141;28;20409;-59
2023/12/31 03:42:53;;;;;;;1.90;0.98;;;20.10;41.90;;;;;;5006075;28;20033;-59
2023/12/31 03:45:18;;;;;;;2.03;0.90;;;20.10;41.90;;;;;;4999446;28;20109;-60
2023/12/31 03:47:45;;;;;;;1.65;0.98;;;20.00;41.90;;;;;;5006234;28;20034;-60
2023/12/31 03:50:11;;;;;;;1.55;0.80;;;20.00;41.80;;;;;;5004293;28;20130;-60
2023/12/31 03:52:38;;;;;;;1.40;0.95;;;20.00;41.80;;;;;;4989959;28;20018;-60
2023/12/31 03:55:05;;;;;;;1.45;0.85;;;20.00;41.80;;;;;;5004017;28;20018;-60
2023/12/31 03:57:30;;;;;;;1.08;0.70;;;20.00;41.80;;;;;;5006444;28;20021;-59
2023/12/31 03:59:56;;;;;;;1.77;0.82;;;20.00;41.80;;;;;;5001728;28;20045;-59
2023/12/31 04:02:22;;;;;;;1.50;0.82;;;20.00;41.80;;;;;;5006729;28;20034;-60
2023/12/31 04:04:48;;;;;;;1.95;0.80;;;20.00;41.80;;;;;;5004343;28;20030;-58
2023/12/31 04:07:14;;;;;;;2.00;0.85;;;20.00;41.80;;;;;;4999642;28;20030;-60
2023/12/31 04:09:39;;;;;;;0.88;0.57;;;20.00;41.70;;;;;;5004631;28;20045;-60
2023/12/31 04:12:06;;;;;;;1.67;0.70;;;20.00;41.70;;;;;;5002518;28;20038;-61
2023/12/31 04:14:31;;;;;;;1.27;0.80;;;20.00;41.70;;;;;;5000642;28;20023;-61
2023/12/31 04:16:57;;;;;;;1.02;0.75;;;20.00;41.70;;;;;;4999382;28;20396;-61
2023/12/31 04:19:23;;;;;;;0.80;0.52;;;20.00;41.70;;;;;;4996535;28;20110;-61
2023/12/31 04:21:49;;;;;;;1.92;1.00;;;20.00;41.60;;;;;;4986405;28;20030;-61
2023/12/31 04:24:15;;;;;;;1.88;0.63;;;20.00;41.60;;;;;;5001786;28;20065;-59
2023/12/31 04:26:47;;;;;;;0.60;0.50;;;20.00;41.60;;;;;;5003079;28;20441;-61
2023/12/31 04:29:12;;;;;;;1.00;0.75;;;20.00;41.60;;;;;;5000657;28;20061;-59
2023/12/31 04:31:48;;;;;;;0.82;0.50;;;19.90;41.60;;;;;;5006813;28;20464;-61
2023/12/31 04:34:14;;;;;;;0.80;0.60;;;19.90;41.50;;;;;;5003743;28;20081;-61
2023/12/31 04:36:44;;;;;;;1.08;0.60;;;20.00;41.60;;;;;;5002918;28;20148;-60
2023/12/31 04:39:11;;;;;;;1.45;0.70;;;19.90;41.50;;;;;;5000118;28;20036;-61
2023/12/31 04:41:37;;;;;;;1.33;0.70;;;19.90;41.60;;;;;;5001738;28;20034;-61
2023/12/31 04:44:02;;;;;;;0.90;0.50;;;19.90;41.50;;;;;;5002883;28;20392;-60
2023/12/31 04:46:28;;;;;;;1.10;0.60;;;19.90;41.50;;;;;;5007082;28;20022;-61
2023/12/31 04:48:54;;;;;;;1.40;0.60;;;19.90;41.50;;;;;;5004189;28;20041;-60
2023/12/31 04:51:28;;;;;;;0.70;0.50;;;19.90;41.50;;;;;;5004805;28;20027;-61
2023/12/31 04:53:55;;;;;;;1.13;0.60;;;19.90;41.50;;;;;;5005230;28;20026;-61
2023/12/31 04:56:22;;;;;;;1.73;0.77;;;19.90;41.50;;;;;;4997059;28;20532;-60
2023/12/31 04:58:52;;;;;;;0.60;0.40;;;19.90;41.50;;;;;;5005524;28;20374;-61
2023/12/31 05:01:19;;;;;;;0.80;0.52;;;19.90;41.50;;;;;;5002967;28;20027;-60
2023/12/31 05:03:46;;;;;;;1.25;0.60;;;19.90;41.50;;;;;;5003697;28;20026;-60
2023/12/31 05:06:13;;;;;;;0.93;0.40;;;19.90;41.50;;;;;;5000462;28;20054;-60
2023/12/31 05:08:43;;;;;;;1.25;0.65;;;19.90;41.50;;;;;;4996141;28;20349;-60
2023/12/31 05:11:10;;;;;;;1.00;0.50;;;19.80;41.40;;;;;;5001966;28;20465;-61
2023/12/31 05:13:36;;;;;;;0.77;0.50;;;19.80;41.50;;;;;;5004471;28;20030;-60
2023/12/31 05:16:02;;;;;;;0.50;0.32;;;19.90;41.50;;;;;;4997871;28;20025;-61
2023/12/31 05:18:28;;;;;;;0.82;0.57;;;19.80;41.40;;;;;;4994098;28;20034;-61
2023/12/31 05:20:55;;;;;;;0.77;0.40;;;19.80;41.50;;;;;;5002696;28;20114;-61
2023/12/31 05:23:21;;;;;;;0.82;0.43;;;19.80;41.50;;;;;;5000444;28;20034;-61
2023/12/31 05:25:49;;;;;;;0.80;0.57;;;19.80;41.50;;;;;;5003082;28;20037;-61
2023/12/31 05:28:14;;;;;;;0.57;0.40;;;19.80;41.50;;;;;;5004055;28;20034;-60
2023/12/31 05:30:41;;;;;;;0.77;0.40;;;19.80;41.50;;;;;;5000901;28;20025;-60
2023/12/31 05:33:07;;;;;;;0.77;0.50;;;19.80;41.50;;;;;;5002606;28;20037;-60
2023/12/31 05:35:33;;;;;;;2.00;0.52;;;19.80;41.50;;;;;;5003610;28;20076;-61
2023/12/31 05:37:59;;;;;;;0.68;0.40;;;19.80;41.50;;;;;;5005183;28;20467;-61
2023/12/31 05:40:24;;;;;;;0.52;0.43;;;19.80;41.50;;;;;;5004904;28;20379;-60
2023/12/31 05:42:50;;;;;;;0.40;0.40;;;19.80;41.50;;;;;;5003801;28;20022;-61
2023/12/31 05:45:18;;;;;;;1.08;0.50;;;19.80;41.60;;;;;;4998774;28;20026;-61
2023/12/31 05:47:44;;;;;;;0.90;0.50;;;19.80;41.60;;;;;;4994833;28;20050;-61
2023/12/31 05:50:10;;;;;;;1.00;0.60;;;19.80;41.60;;;;;;4987303;28;20553;-61
2023/12/31 05:52:36;;;;;;;1.00;0.50;;;19.80;41.60;;;;;;5002013;28;20133;-60
2023/12/31 05:55:02;;;;;;;0.95;0.60;;;19.80;41.60;;;;;;5006372;28;20050;-60
2023/12/31 05:57:28;;;;;;;1.02;0.60;;;19.80;41.70;;;;;;5007468;28;20049;-59
2023/12/31 05:59:54;;;;;;;0.75;0.50;;;19.80;41.70;;;;;;4992321;28;20037;-59
2023/12/31 06:02:19;;;;;;;0.90;0.50;;;19.80;41.70;;;;;;5004552;28;20448;-60
2023/12/31 06:04:45;;;;;;;0.93;0.50;;;19.80;41.70;;;;;;5009845;28;20391;-60
2023/12/31 06:07:11;;;;;;;1.00;0.60;;;19.80;41.80;;;;;;4994491;28;20026;-58
2023/12/31 06:09:37;;;;;;;0.63;0.43;;;19.80;41.80;;;;;;4992318;28;20129;-60
2023/12/31 06:12:03;;;;;;;0.40;0.35;;;19.80;41.80;;;;;;4999071;28;20030;-59
2023/12/31 06:14:28;;;;;;;0.70;0.40;;;19.70;41.80;;;;;;4992717;28;20035;-59
2023/12/31 06:16:54;;;;;;;1.63;0.60;;;19.70;41.80;;;;;;4992329;28;20121;-61
2023/12/31 06:19:20;;;;;;;0.70;0.50;;;19.70;41.80;;;;;;4990836;28;20031;-58
2023/12/31 06:21:46;;;;;;;0.88;0.57;;;19.80;41.90;;;;;;4998173;28;20422;-60
2023/12/31 06:24:12;;;;;;;0.90;0.50;;;19.70;41.80;;;;;;4995234;28;20357;-58
2023/12/31 06:26:38;;;;;;;1.23;0.68;;;19.70;41.80;;;;;;4998188;28;20100;-58
2023/12/31 06:29:03;;;;;;;0.70;0.50;;;19.70;41.90;;;;;;4994526;28;20065;-61
2023/12/31 06:31:29;;;;;;;0.43;0.40;;;19.70;41.90;;;;;;4991762;28;20031;-60
2023/12/31 06:33:55;;;;;;;0.77;0.50;;;19.70;41.90;;;;;;5005146;28;20030;-60
2023/12/31 06:36:21;;;;;;;0.90;0.55;;;19.70;41.90;;;;;;4993413;28;20113;-60
2023/12/31 06:38:46;;;;;;;1.02;0.70;;;19.70;41.90;;;;;;5001444;28;20030;-60
2023/12/31 06:41:12;;;;;;;0.50;0.40;;;19.70;41.90;;;;;;5007533;28;20395;-61
2023/12/31 06:43:41;;;;;;;0.80;0.47;;;19.70;41.90;;;;;;5009728;28;20045;-60
2023/12/31 06:46:07;;;;;;;0.85;0.50;;;19.70;41.90;;;;;;4995477;28;20065;-60
2023/12/31 06:48:32;;;;;;;0.80;0.50;;;19.70;41.90;;;;;;4994613;28;20410;-60
2023/12/31 06:50:58;;;;;;;0.70;0.50;;;19.70;41.90;;;;;;4994115;28;20054;-60
2023/12/31 06:53:24;;;;;;;0.30;0.30;;;19.70;41.90;;;;;;5002425;28;20420;-61
2023/12/31 06:55:50;;;;;;;0.93;0.57;;;19.70;41.90;;;;;;4996719;28;20033;-60
2023/12/31 06:58:16;;;;;;;0.50;0.40;;;19.70;41.90;;;;;;4995590;28;20035;-61
2023/12/31 07:00:41;;;;;;;0.95;0.50;;;19.70;42.00;;;;;;4991814;28;20027;-60
2023/12/31 07:03:07;;;;;;;0.63;0.40;;;19.70;42.00;;;;;;4996525;28;20019;-60
2023/12/31 07:05:33;;;;;;;0.90;0.50;;;19.70;42.00;;;;;;4987534;28;20122;-59
2023/12/31 07:07:59;;;;;;;1.00;0.47;;;19.60;41.90;;;;;;4987160;28;20022;-59
2023/12/31 07:10:25;;;;;;;1.23;0.50;;;19.70;42.00;;;;;;4994174;28;20393;-60
2023/12/31 07:12:52;;;;;;;0.45;0.40;;;19.70;42.00;;;;;;4993280;28;20026;-59
2023/12/31 07:15:18;;;;;;;0.50;0.45;;;19.60;42.00;;;;;;5012267;28;20358;-59
2023/12/31 07:17:44;;;;;;;1.05;0.55;;;19.70;42.00;;;;;;4981692;28;20136;-60
2023/12/31 07:20:11;;;;;;;2.15;0.50;;;19.60;42.00;;;;;;5012568;28;20037;-60
2023/12/31 07:22:38;;;;;;;1.15;0.60;;;19.60;42.00;;;;;;4995458;28;20505;-60
2023/12/31 07:25:05;;;;;;;0.73;0.40;;;19.70;42.10;;;;;;5003044;28;20034;-60
2023/12/31 07:27:31;;;;;;;0.75;0.52;;;19.70;42.70;;;;;;4998122;28;20038;-58
2023/12/31 07:29:56;;;;;;;0.55;0.45;;;19.60;42.00;;;;;;4993746;28;20027;-60
2023/12/31 07:32:22;;;;;;;0.40;0.40;;;19.60;42.00;;;;;;4995154;28;20065;-60
2023/12/31 07:34:48;;;;;;;1.05;0.70;;;19.60;42.00;;;;;;5001056;28;20026;-58
2023/12/31 07:37:14;;;;;;;0.90;0.60;;;19.60;42.00;;;;;;4996711;28;20345;-59
2023/12/31 07:39:42;;;;;;;1.08;0.60;;;19.60;42.00;;;;;;4994038;28;20113;-61
2023/12/31 07:42:09;;;;;;;1.15;0.70;;;19.60;42.00;;;;;;5006555;28;20096;-59
2023/12/31 07:44:35;;;;;;;0.80;0.60;;;19.60;42.00;;;;;;5009107;28;20571;-59
2023/12/31 07:47:03;;;;;;;0.95;0.63;;;19.60;42.00;;;;;;5012031;28;20402;-58
2023/12/31 07:49:30;;;;;;;1.13;0.82;;;19.60;42.00;;;;;;5011641;28;20072;-60
2023/12/31 07:51:56;;;;;;;1.33;0.65;;;19.60;42.00;;;;;;5012996;28;20049;-58
2023/12/31 07:54:23;;;;;;;1.70;0.77;;;19.60;42.00;;;;;;5012343;28;20143;-58
2023/12/31 07:56:49;;;;;;;1.95;0.60;;;19.60;42.00;;;;;;4995812;28;20049;-60
2023/12/31 07:59:15;;;;;;;2.03;0.70;;;19.60;42.00;;;;;;4996308;28;20117;-57
2023/12/31 08:01:40;;;;;;;1.33;0.80;;;19.50;42.00;;;;;;5005012;28;20031;-59
2023/12/31 08:04:06;;;;;;;2.10;0.80;;;19.50;42.00;;;;;;4995739;28;20104;-62
2023/12/31 08:06:32;;;;;;;1.42;0.68;;;19.60;42.00;;;;;;5005419;28;20053;-58
2023/12/31 08:08:58;;;;;;;2.03;0.90;;;19.60;42.00;;;;;;4996355;28;20056;-57
2023/12/31 08:11:23;;;;;;;0.90;0.70;;;19.60;42.00;;;;;;5002557;28;20050;-59
2023/12/31 08:13:49;;;;;;;0.88;0.70;;;19.60;42.00;;;;;;4996225;28;20113;-59
2023/12/31 08:16:15;;;;;;;1.30;0.82;;;19.50;42.00;;;;;;4992683;28;20040;-59
2023/12/31 08:18:41;;;;;;;1.05;0.65;;;19.50;42.00;;;;;;4997506;28;20411;-59
2023/12/31 08:21:06;;;;;;;1.20;0.70;;;19.50;42.00;;;;;;5001983;28;20026;-58
2023/12/31 08:23:32;;;;;;;1.38;0.70;;;19.50;42.00;;;;;;5014209;28;20040;-59
2023/12/31 08:25:58;;;;;;;0.85;0.63;;;19.50;42.00;;;;;;5008284;28;20032;-58
2023/12/31 08:28:24;;;;;;;1.10;0.70;;;19.50;42.00;;;;;;4995434;28;20036;-58
2023/12/31 08:30:52;;;;;;;1.77;0.75;;;19.50;42.10;;;;;;5004221;28;20051;-60
2023/12/31 08:33:17;;;;;;;1.17;0.80;;;19.50;42.10;;;;;;4995277;28;20442;-60
2023/12/31 08:35:43;;;;;;;1.30;0.77;;;19.50;42.10;;;;;;4995850;28;20049;-61
2023/12/31 08:38:10;;;;;;;2.20;0.88;;;19.50;42.20;;;;;;5005098;28;20409;-61
2023/12/31 08:40:35;;;;;;;1.45;0.80;;;19.50;42.20;;;;;;5004423;28;20041;-60
2023/12/31 08:43:01;;;;;;;1.05;0.73;;;19.50;42.20;;;;;;4997920;28;20022;-61
2023/12/31 08:45:27;;;;;;;1.10;0.80;;;19.60;42.30;;;;;;4995545;28;20036;-59
2023/12/31 08:47:53;;;;;;;1.77;0.70;;;19.60;42.30;;;;;;4995161;28;20038;-58
2023/12/31 08:50:19;;;;;;;1.83;0.88;;;19.60;42.40;;;;;;4991328;28;20089;-62
2023/12/31 08:52:46;;;;;;;1.15;0.73;;;19.70;42.40;;;;;;4987494;28;20417;-59
2023/12/31 08:55:13;;;;;;;1.55;0.75;;;19.60;42.30;;;;;;4990026;28;20027;-59
2023/12/31 08:57:47;;;;;;;2.05;0.93;;;19.70;42.30;;;;;;4994461;28;20441;-59
2023/12/31 09:00:13;;;;;;;2.47;0.77;;;19.80;42.30;;;;;;4997361;28;20120;-58
2023/12/31 09:02:39;;;;;;;1.50;0.90;;;19.80;42.30;;;;;;4992750;28;20404;-58
2023/12/31 09:05:05;;;;;;;1.95;0.93;;;19.90;42.30;;;;;;4991816;28;20034;-57
2023/12/31 09:07:35;;;;;;;1.00;0.70;;;20.00;42.30;;;;;;4992886;28;20030;-56
2023/12/31 09:10:02;;;;;;;1.77;0.95;;;20.10;42.20;;;;;;4992595;28;20050;-56
2023/12/31 09:12:28;;;;;;;1.38;0.70;;;20.10;42.20;;;;;;4989147;28;20041;-59
2023/12/31 09:14:54;;;;;;;1.15;0.88;;;20.20;42.10;;;;;;4993057;28;20019;-61
2023/12/31 09:17:20;;;;;;;1.40;0.80;;;20.30;42.10;;;;;;4992820;28;20042;-58
2023/12/31 09:19:46;;;;;;;1.77;0.93;;;20.30;42.00;;;;;;4993471;28;20107;-55
2023/12/31 09:22:12;;;;;;;1.33;0.60;;;20.40;42.00;;;;;;4995226;28;20031;-58
2023/12/31 09:24:39;;;;;;;1.67;0.85;;;20.40;41.90;;;;;;4990209;28;20034;-58
2023/12/31 09:27:07;;;;;;;1.10;0.80;;;20.50;41.80;;;;;;4994693;28;20076;-56
2023/12/31 09:29:35;;;;;;;0.88;0.80;;;20.60;41.80;;;;;;5001198;28;20065;-63
2023/12/31 09:32:00;;;;;;;1.35;0.85;;;20.70;41.70;;;;;;4998697;28;20084;-62
2023/12/31 09:34:26;;;;;;;1.13;0.75;;;20.80;41.70;;;;;;5005667;28;20429;-55
2023/12/31 09:36:52;;;;;;;0.70;0.55;;;20.90;41.60;;;;;;5001315;28;20053;-58
2023/12/31 09:39:18;;;;;;;0.88;0.55;;;21.00;41.40;;;;;;4994542;28;20029;-58
2023/12/31 09:41:48;;;;;;;1.25;0.50;;;21.10;41.30;;;;;;5002236;28;20034;-58
2023/12/31 09:44:17;;;;;;;5.18;0.50;;;21.10;41.20;;;;;;5003502;28;20034;-56
2023/12/31 09:47:06;;;;;;;0.93;0.43;;;21.20;41.20;;;;;;5002172;28;20121;-61
2023/12/31 09:49:36;;;;;;;0.88;0.40;;;21.30;41.10;;;;;;4999781;28;20040;-63
2023/12/31 09:52:03;;;;;;;2.40;0.70;;;21.40;41.00;;;;;;5005852;28;20037;-62
2023/12/31 09:54:31;;;;;;;1.88;1.10;;;21.40;41.00;;;;;;4994299;28;20457;-63
2023/12/31 09:56:58;;;;;;;2.75;1.33;;;21.50;41.10;;;;;;4989272;28;20114;-62
2023/12/31 09:59:28;;;;;;;2.65;1.67;;;21.60;41.10;;;;;;4996715;28;20022;-63
2023/12/31 10:01:57;;;;;;;5.25;2.13;;;21.70;41.40;;;;;;4989273;28;20031;-62
2023/12/31 10:04:24;;;;;;;5.57;2.50;;;21.80;41.90;;;;;;4996066;28;20018;-62
2023/12/31 10:06:51;;;;;;;5.38;2.83;;;21.90;42.30;;;;;;4992920;28;20049;-61
2023/12/31 10:09:22;;;;;;;9.40;4.40;;;22.00;42.70;;;;;;4997326;28;20050;-65
2023/12/31 10:11:49;;;;;;;8.52;4.28;;;22.10;43.10;;;;;;4985861;28;20039;-61
2023/12/31 10:14:16;;;;;;;8.00;3.75;;;22.10;43.20;;;;;;4975981;28;20049;-63
2023/12/31 10:16:43;;;;;;;9.77;4.35;;;22.20;43.30;;;;;;4980913;28;20022;-65
2023/12/31 10:19:11;;;;;;;11.30;5.00;;;22.30;43.50;;;;;;4987173;28;20042;-65
2023/12/31 10:21:37;;;;;;;10.88;4.60;;;22.30;43.80;;;;;;4976632;28;20031;-65
2023/12/31 10:24:03;;;;;;;10.13;4.68;;;22.30;44.10;;;;;;4982036;28;20324;-66
2023/12/31 10:26:29;;;;;;;8.98;4.35;;;22.50;44.50;;;;;;4977518;28;20042;-66
2023/12/31 10:28:55;;;;;;;10.13;4.72;;;22.50;44.70;;;;;;4979571;28;20046;-66
2023/12/31 10:31:21;;;;;;;8.15;4.35;;;22.50;44.90;;;;;;4976911;28;20041;-64
2023/12/31 10:33:47;;;;;;;11.10;4.65;;;22.50;45.00;;;;;;4987380;28;20049;-69
2023/12/31 10:36:13;;;;;;;7.90;3.83;;;22.60;45.20;;;;;;4976171;28;20109;-63
2023/12/31 10:38:47;;;;;;;10.90;4.10;;;22.60;45.30;;;;;;4979564;28;20432;-63
2023/12/31 10:41:20;;;;;;;4.80;2.65;;;22.60;45.30;;;;;;4976880;28;20031;-58
2023/12/31 10:43:47;;;;;;;6.45;1.88;;;22.60;45.40;;;;;;4983084;28;20058;-68
2023/12/31 10:46:18;;;;;;;2.85;1.50;;;22.60;44.10;;;;;;4992065;28;20022;-67
2023/12/31 10:49:10;;;;;;;5.03;1.67;;;22.50;44.20;;;;;;4986116;28;20438;-62
2023/12/31 10:51:40;;;;;;;2.53;1.33;;;22.50;43.30;;;;;;4978007;28;20043;-64
2023/12/31 10:54:08;;;;;;;5.60;1.85;;;22.40;43.10;;;;;;4991633;28;20034;-62
2023/12/31 10:56:34;;;;;;;4.10;1.90;;;22.40;43.00;;;;;;4988371;28;20049;-60
2023/12/31 10:59:02;;;;;;;4.60;2.20;;;22.40;43.10;;;;;;4988932;28;20087;-59
2023/12/31 11:01:28;;;;;;;3.97;1.98;;;22.40;43.10;;;;;;4990060;28;20101;-64
2023/12/31 11:03:56;;;;;;;4.03;2.33;;;22.40;43.20;;;;;;4995133;28;20031;-61
2023/12/31 11:06:23;;;;;;;4.32;2.08;;;22.40;43.80;;;;;;4998037;28;20441;-60
2023/12/31 11:08:49;;;;;;;3.20;1.70;;;22.50;43.20;;;;;;4997311;28;20441;-58
2023/12/31 11:11:16;;;;;;;5.38;1.98;;;22.50;43.10;;;;;;4995162;28;20054;-59
2023/12/31 11:13:50;;;;;;;6.70;2.03;;;22.50;43.00;;;;;;4993113;28;20344;-59
2023/12/31 11:16:28;;;;;;;5.05;2.08;;;22.50;42.90;;;;;;4995172;28;20041;-57
2023/12/31 11:19:22;;;;;;;2.65;1.70;;;22.60;42.70;;;;;;4991113;28;20120;-57
2023/12/31 11:21:56;;;;;;;4.28;2.03;;;22.60;42.70;;;;;;4994252;28;20030;-55
2023/12/31 11:24:24;;;;;;;3.72;2.00;;;22.60;42.60;;;;;;5001866;28;20037;-58
2023/12/31 11:27:17;;;;;;;3.08;1.50;;;22.60;42.60;;;;;;4999089;28;20341;-60
2023/12/31 11:29:49;;;;;;;2.20;1.30;;;22.60;42.40;;;;;;4988592;28;20070;-56
2023/12/31 11:32:17;;;;;;;2.53;1.63;;;22.60;42.30;;;;;;5000150;28;20145;-59
2023/12/31 11:34:43;;;;;;;6.20;1.73;;;22.50;42.30;;;;;;4996358;28;20026;-63
2023/12/31 11:37:09;;;;;;;3.38;1.60;;;22.40;42.30;;;;;;4996119;28;20049;-61
2023/12/31 11:39:34;;;;;;;4.00;1.35;;;22.40;42.40;;;;;;4990256;28;20027;-55
2023/12/31 11:42:09;;;;;;;4.90;1.60;;;22.30;42.40;;;;;;4994944;28;20101;-56
2023/12/31 11:44:40;;;;;;;2.80;1.20;;;22.30;42.30;;;;;;4992991;28;20038;-52
2023/12/31 11:47:22;;;;;;;2.00;0.93;;;22.20;42.20;;;;;;4994562;28;20089;-53
2023/12/31 11:49:53;;;;;;;2.03;1.30;;;22.20;42.20;;;;;;4987132;28;20050;-53
2023/12/31 11:52:40;;;;;;;2.30;1.20;;;22.10;42.10;;;;;;4997932;28;20022;-57
2023/12/31 11:55:15;;;;;;;1.60;0.93;;;22.10;42.00;;;;;;4997865;28;20038;-59
2023/12/31 11:57:43;;;;;;;;;;;22.00;42.00;;;;;;4998228;28;20040;-54
2023/12/31 12:00:11;;;;;;;1.42;0.80;;;22.00;42.10;;;;;;4999345;28;19909;-53
2023/12/31 12:02:37;;;;;;;1.58;0.90;;;21.90;42.10;;;;;;5004069;28;20041;-49
2023/12/31 12:05:04;;;;;;;2.50;1.02;;;21.90;42.10;;;;;;4991057;28;20415;-54
2023/12/31 12:07:30;;;;;;;1.65;0.80;;;21.80;42.00;;;;;;4987317;28;20034;-56
2023/12/31 12:09:56;;;;;;;0.98;0.70;;;21.80;42.00;;;;;;5011388;28;20057;-52
2023/12/31 12:12:22;;;;;;;1.48;0.85;;;21.80;42.00;;;;;;4994779;28;20034;-51
2023/12/31 12:14:51;;;;;;;1.55;0.70;;;21.70;41.90;;;;;;4998516;28;20455;-54
2023/12/31 12:17:17;;;;;;;2.03;0.85;;;21.70;41.80;;;;;;4989662;28;20089;-54
2023/12/31 12:19:43;;;;;;;1.70;0.70;;;21.70;41.70;;;;;;5008112;28;20026;-57
2023/12/31 12:22:09;;;;;;;1.48;0.77;;;21.70;41.60;;;;;;4986804;28;20037;-56
2023/12/31 12:24:35;;;;;;;1.55;0.80;;;21.60;41.50;;;;;;4995578;28;20072;-55
2023/12/31 12:27:03;;;;;;;0.82;0.50;;;21.60;41.50;;;;;;4988084;28;20361;-56
2023/12/31 12:29:29;;;;;;;1.55;0.65;;;21.60;41.50;;;;;;4992135;28;20522;-54
2023/12/31 12:31:56;;;;;;;0.52;0.40;;;21.60;41.50;;;;;;4991466;28;20097;-52
2023/12/31 12:34:22;;;;;;;2.80;0.60;;;21.60;41.50;;;;;;5001391;28;20342;-51
2023/12/31 12:36:49;;;;;;;1.15;0.77;;;21.60;41.50;;;;;;4999255;28;20087;-52
2023/12/31 12:39:16;;;;;;;0.93;0.40;;;21.60;41.50;;;;;;5000488;28;20046;-55
2023/12/31 12:41:49;;;;;;;0.70;0.50;;;21.50;42.00;;;;;;5005064;28;20029;-56
2023/12/31 12:44:17;;;;;;;0.70;0.50;;;21.50;41.40;;;;;;5002580;28;20034;-58